Time;durP1;ratioP1;P1;durP2;ratioP2;P2;SDS_P1;SDS_P2;PMS_P1;PMS_P2;Temp;Humidity;BMP_temperature;BMP_pressure;BME280_temperature;BME280_humidity;BME280_pressure;Samples;Min_cycle;Max_cycle;Signal;HPM_P1;HPM_P2
2021/06/27 00:04:31;;;;;;;10.52;5.53;;;;;;;17.32;100.00;94798.25;10481912;28;20035;-77
2021/06/27 00:09:31;;;;;;;10.35;4.95;;;;;;;17.21;100.00;94803.16;10481979;28;20021;-77
2021/06/27 00:14:32;;;;;;;18.10;5.57;;;;;;;17.13;100.00;94798.50;10482196;28;20029;-77
2021/06/27 00:19:32;;;;;;;10.68;5.47;;;;;;;17.20;100.00;94801.56;10482448;28;20111;-77
2021/06/27 00:24:33;;;;;;;13.50;6.03;;;;;;;17.27;100.00;94804.63;10482052;28;20115;-77
2021/06/27 00:29:34;;;;;;;15.57;6.45;;;;;;;17.09;100.00;94795.59;10488021;28;20638;-77
2021/06/27 00:34:34;;;;;;;19.80;6.30;;;;;;;17.28;100.00;94791.84;10489461;28;20050;-77
2021/06/27 00:39:35;;;;;;;16.85;6.25;;;;;;;17.30;100.00;94800.47;10489095;28;20065;-77
2021/06/27 00:44:36;;;;;;;19.85;5.68;;;;;;;17.30;100.00;94786.88;10488118;28;20032;-77
2021/06/27 00:49:36;;;;;;;12.20;4.67;;;;;;;17.19;100.00;94786.38;10489562;28;20032;-77
2021/06/27 00:54:37;;;;;;;22.53;4.57;;;;;;;17.16;100.00;94784.28;10488976;28;20028;-77
2021/06/27 00:59:37;;;;;;;15.03;4.27;;;;;;;17.13;100.00;94771.34;10488844;28;20773;-77
2021/06/27 01:04:38;;;;;;;18.20;5.40;;;;;;;17.07;100.00;94778.81;10488708;28;20332;-77
2021/06/27 01:09:39;;;;;;;9.07;3.45;;;;;;;16.94;100.00;94760.72;10488412;28;20019;-77
2021/06/27 01:14:39;;;;;;;11.23;4.55;;;;;;;16.71;100.00;94741.75;10488805;28;20024;-77
2021/06/27 01:19:40;;;;;;;13.87;4.00;;;;;;;16.65;100.00;94734.84;10487648;28;20017;-77
2021/06/27 01:24:40;;;;;;;11.27;3.85;;;;;;;16.78;100.00;94742.09;10486275;28;20024;-77
2021/06/27 01:29:41;;;;;;;17.93;4.57;;;;;;;16.62;100.00;94736.28;10486451;28;20024;-77
2021/06/27 01:34:43;;;;;;;15.80;4.10;;;;;;;16.62;100.00;94727.31;10486535;28;20074;-77
2021/06/27 01:39:44;;;;;;;6.15;3.67;;;;;;;16.52;100.00;94729.19;10486755;28;20055;-77
2021/06/27 01:44:44;;;;;;;6.88;3.67;;;;;;;16.57;100.00;94734.47;10487504;28;20455;-77
2021/06/27 01:49:45;;;;;;;13.63;3.80;;;;;;;16.54;100.00;94737.81;10487036;28;20020;-77
2021/06/27 01:54:45;;;;;;;12.02;3.65;;;;;;;16.56;100.00;94730.19;10487604;28;20028;-77
2021/06/27 01:59:48;;;;;;;16.60;3.97;;;;;;;16.42;100.00;94729.44;10486610;28;20727;-77
2021/06/27 02:04:48;;;;;;;12.57;3.95;;;;;;;16.16;100.00;94737.41;10486001;28;20016;-77
2021/06/27 02:09:48;;;;;;;17.88;4.68;;;;;;;16.12;100.00;94741.88;10486370;28;20460;-77
2021/06/27 02:14:49;;;;;;;10.07;4.30;;;;;;;16.09;100.00;94732.44;10486015;28;20021;-77
2021/06/27 02:19:53;;;;;;;10.77;4.47;;;;;;;16.12;100.00;94725.59;10486324;28;20056;-77
2021/06/27 02:24:54;;;;;;;12.82;4.10;;;;;;;15.99;100.00;94725.34;10484997;28;20277;-77
2021/06/27 02:29:54;;;;;;;10.90;4.60;;;;;;;16.14;100.00;94735.00;10485023;28;20013;-78
2021/06/27 02:34:54;;;;;;;21.27;5.53;;;;;;;16.30;100.00;94737.34;10484295;28;20290;-78
2021/06/27 02:39:55;;;;;;;11.70;4.50;;;;;;;16.39;100.00;94728.16;10486078;28;20028;-82
2021/06/27 02:44:55;;;;;;;13.40;4.73;;;;;;;16.41;100.00;94736.00;10485140;28;20303;-77
2021/06/27 02:49:55;;;;;;;20.70;4.47;;;;;;;16.36;100.00;94739.63;10484000;28;20324;-77
2021/06/27 02:54:56;;;;;;;14.67;4.27;;;;;;;16.16;100.00;94749.06;10484018;28;20032;-77
2021/06/27 02:59:56;;;;;;;17.10;3.87;;;;;;;16.12;100.00;94744.59;10483481;28;20029;-77
2021/06/27 03:04:57;;;;;;;12.98;4.30;;;;;;;16.26;100.00;94752.66;10484176;28;20032;-77
2021/06/27 03:09:57;;;;;;;12.40;4.60;;;;;;;16.28;100.00;94753.94;10484228;28;20071;-77
2021/06/27 03:14:57;;;;;;;8.70;3.93;;;;;;;16.32;100.00;94756.84;10484247;28;20059;-77
2021/06/27 03:19:58;;;;;;;17.05;5.13;;;;;;;16.23;100.00;94775.75;10499107;28;20020;-77
2021/06/27 03:24:58;;;;;;;16.60;4.53;;;;;;;16.25;100.00;94778.16;10484022;28;20078;-78
2021/06/27 03:29:59;;;;;;;12.27;6.28;;;;;;;16.35;100.00;94773.31;10491653;28;20024;-78
2021/06/27 03:34:59;;;;;;;12.37;4.80;;;;;;;16.51;100.00;94783.78;10498615;28;20079;-76
2021/06/27 03:40:00;;;;;;;14.13;6.10;;;;;;;16.60;100.00;94787.31;10482928;28;20296;-77
2021/06/27 03:45:00;;;;;;;14.65;6.07;;;;;;;16.61;100.00;94778.06;10483394;28;20032;-76
2021/06/27 03:50:01;;;;;;;11.70;3.97;;;;;;;16.62;100.00;94776.97;10483463;28;20024;-78
2021/06/27 03:55:02;;;;;;;18.90;4.90;;;;;;;16.63;100.00;94769.63;10483358;28;20032;-77
2021/06/27 04:00:06;;;;;;;10.88;5.35;;;;;;;16.47;100.00;94770.00;10486037;28;21207;-77
2021/06/27 04:05:07;;;;;;;8.98;4.70;;;;;;;16.53;100.00;94755.19;10491085;28;20017;-77
2021/06/27 04:10:09;;;;;;;10.98;4.20;;;;;;;16.52;100.00;94769.91;10491002;28;20135;-77
2021/06/27 04:15:10;;;;;;;5.90;3.80;;;;;;;16.63;100.00;94769.63;10490906;28;20028;-76
2021/06/27 04:20:11;;;;;;;8.95;4.07;;;;;;;16.85;100.00;94766.06;10488483;28;20037;-76
2021/06/27 04:25:12;;;;;;;14.65;4.22;;;;;;;17.21;100.00;94767.84;10489371;28;20128;-76
2021/06/27 04:30:13;;;;;;;11.13;3.60;;;;;;;17.63;100.00;94764.78;10505334;28;20024;-77
2021/06/27 04:35:13;;;;;;;13.02;3.95;;;;;;;18.16;100.00;94760.97;10489576;28;20037;-77
2021/06/27 04:40:13;;;;;;;9.90;4.27;;;;;;;18.44;100.00;94766.09;10489362;28;20476;-77
2021/06/27 04:45:14;;;;;;;16.50;4.00;;;;;;;18.98;100.00;94762.13;10488009;28;20263;-77
2021/06/27 04:50:14;;;;;;;13.47;5.43;;;;;;;19.41;100.00;94775.59;10488886;28;20017;-77
2021/06/27 04:55:15;;;;;;;19.77;4.53;;;;;;;20.07;100.00;94768.78;10488750;28;20415;-77
2021/06/27 05:00:15;;;;;;;9.77;4.00;;;;;;;20.69;100.00;94771.00;10488748;28;20031;-77
2021/06/27 05:05:16;;;;;;;16.25;3.58;;;;;;;21.29;100.00;94761.31;10488350;28;20032;-76
2021/06/27 05:10:16;;;;;;;13.20;3.87;;;;;;;22.11;100.00;94769.69;10484905;28;20024;-76
2021/06/27 05:15:17;;;;;;;13.75;4.07;;;;;;;22.34;100.00;94773.53;10486724;28;20282;-77
2021/06/27 05:20:17;;;;;;;15.98;4.07;;;;;;;22.56;100.00;94776.88;10486190;28;20032;-77
2021/06/27 05:25:18;;;;;;;20.17;4.50;;;;;;;23.15;100.00;94758.88;10487768;28;20028;-76
2021/06/27 05:30:19;;;;;;;10.38;3.72;;;;;;;22.38;100.00;94770.09;10485611;28;20107;-76
2021/06/27 05:35:19;;;;;;;12.07;4.07;;;;;;;22.48;100.00;94775.06;10485500;28;20044;-75
2021/06/27 05:40:20;;;;;;;17.05;5.40;;;;;;;22.64;100.00;94773.19;10486299;28;20028;-76
2021/06/27 05:45:20;;;;;;;19.05;5.13;;;;;;;23.77;100.00;94765.84;10486586;28;20451;-77
2021/06/27 05:50:21;;;;;;;15.17;3.87;;;;;;;24.62;100.00;94790.06;10472239;28;20036;-77
2021/06/27 05:55:22;;;;;;;8.57;3.55;;;;;;;25.50;100.00;94785.78;10449100;28;20127;-77
2021/06/27 06:00:22;;;;;;;14.40;4.07;;;;;;;26.26;100.00;94779.44;10501270;28;20029;-76
2021/06/27 06:05:22;;;;;;;8.75;3.90;;;;;;;26.89;96.99;94775.13;10485501;28;20048;-76
2021/06/27 06:10:23;;;;;;;14.67;3.10;;;;;;;27.38;96.68;94769.72;10484391;28;20101;-77
2021/06/27 06:15:23;;;;;;;13.87;3.87;;;;;;;28.22;80.94;94774.69;10485618;28;20032;-77
2021/06/27 06:20:24;;;;;;;13.07;3.93;;;;;;;27.92;79.33;94775.66;10485947;28;20109;-77
2021/06/27 06:25:24;;;;;;;12.37;3.70;;;;;;;28.46;84.11;94778.75;10483696;28;20051;-76
2021/06/27 06:30:24;;;;;;;12.07;3.83;;;;;;;29.36;84.31;94776.31;10485380;28;20024;-81
2021/06/27 06:35:25;;;;;;;15.90;3.97;;;;;;;29.62;75.43;94772.34;10467879;28;20044;-77
2021/06/27 06:40:25;;;;;;;10.93;4.93;;;;;;;29.82;71.16;94764.44;10443663;28;20426;-76
2021/06/27 06:45:26;;;;;;;18.27;5.20;;;;;;;30.30;67.76;94762.41;10446792;28;20157;-76
2021/06/27 06:50:26;;;;;;;11.00;4.00;;;;;;;30.47;66.06;94767.13;10481385;28;20130;-75
2021/06/27 06:55:27;;;;;;;15.73;3.80;;;;;;;31.70;60.72;94760.91;10481054;28;20048;-76
2021/06/27 07:00:28;;;;;;;13.32;3.05;;;;;;;31.72;57.76;94758.53;10482202;28;20040;-75
2021/06/27 07:05:28;;;;;;;11.63;3.17;;;;;;;32.83;56.07;94761.38;10479919;28;20459;-75
2021/06/27 07:10:29;;;;;;;7.63;3.13;;;;;;;32.30;53.08;94764.34;10478612;28;20067;-75
2021/06/27 07:15:29;;;;;;;8.73;2.45;;;;;;;32.62;54.03;94762.41;10481194;28;20765;-75
2021/06/27 07:20:29;;;;;;;14.00;3.35;;;;;;;32.97;54.20;94761.19;10481166;28;20086;-75
2021/06/27 07:25:30;;;;;;;13.50;3.30;;;;;;;33.01;56.69;94748.00;10483262;28;20047;-75
2021/06/27 07:30:32;;;;;;;15.68;2.85;;;;;;;32.32;56.63;94752.78;10484050;28;20337;-75
2021/06/27 07:35:32;;;;;;;15.82;3.30;;;;;;;31.57;63.46;94746.72;10489256;28;20174;-75
2021/06/27 07:40:32;;;;;;;10.80;2.25;;;;;;;31.39;61.18;94754.41;10497372;28;20108;-75
2021/06/27 07:45:34;;;;;;;8.00;2.37;;;;;;;30.93;67.63;94754.25;10480259;28;20036;-75
2021/06/27 07:50:35;;;;;;;15.93;3.10;;;;;;;30.71;67.73;94753.56;10454922;28;20302;-75
2021/06/27 07:55:36;;;;;;;7.83;3.13;;;;;;;30.07;66.30;94749.81;10455569;28;20043;-75
2021/06/27 08:00:36;;;;;;;9.87;2.77;;;;;;;30.94;70.90;94743.94;10455464;28;20099;-75
2021/06/27 08:05:37;;;;;;;11.33;2.60;;;;;;;33.11;52.13;94749.06;10455067;28;20037;-76
2021/06/27 08:10:37;;;;;;;17.17;2.80;;;;;;;34.17;49.64;94740.63;10455959;28;20408;-76
2021/06/27 08:15:37;;;;;;;7.97;2.60;;;;;;;35.36;42.20;94741.03;10454940;28;20033;-76
2021/06/27 08:20:38;;;;;;;11.85;1.90;;;;;;;36.99;40.18;94732.00;10455322;28;20488;-76
2021/06/27 08:25:38;;;;;;;8.87;2.73;;;;;;;37.52;37.49;94740.00;10456527;28;20047;-76
2021/06/27 08:30:39;;;;;;;8.37;1.70;;;;;;;37.89;34.21;94735.59;10455305;28;20060;-76
2021/06/27 08:35:40;;;;;;;19.23;6.47;;;;;;;38.10;34.65;94731.28;10454307;28;20118;-76
2021/06/27 08:40:40;;;;;;;7.25;2.05;;;;;;;38.40;34.10;94722.66;10453393;28;20041;-76
2021/06/27 08:45:51;;;;;;;8.60;2.30;;;;;;;39.07;34.57;94718.56;10469851;28;20028;-76
2021/06/27 08:50:53;;;;;;;10.32;1.60;;;;;;;38.52;32.31;94719.00;10489277;28;20082;-76
2021/06/27 08:56:05;;;;;;;7.38;2.33;;;;;;;38.70;32.62;94709.94;10488430;28;20058;-76
2021/06/27 09:01:26;;;;;;;8.20;2.33;;;;;;;39.51;30.44;94711.25;10489131;28;20040;-76
2021/06/27 09:06:27;;;;;;;10.93;2.05;;;;;;;40.51;29.77;94706.28;10488925;28;20119;-76
2021/06/27 09:11:27;;;;;;;5.60;1.77;;;;;;;40.97;29.77;94711.09;10488768;28;20025;-76
2021/06/27 09:16:28;;;;;;;9.03;2.20;;;;;;;40.14;31.41;94704.25;10488743;28;20028;-76
2021/06/27 09:21:30;;;;;;;7.78;1.60;;;;;;;41.28;28.88;94699.56;10488464;28;20521;-76
2021/06/27 09:26:32;;;;;;;7.28;1.75;;;;;;;40.88;29.56;94706.22;10488091;28;20559;-76
2021/06/27 09:31:35;;;;;;;11.30;2.30;;;;;;;38.26;31.44;94705.06;10487999;28;20132;-76
2021/06/27 09:36:44;;;;;;;6.55;2.10;;;;;;;38.68;31.72;94692.75;10487659;28;20056;-76
2021/06/27 09:41:52;;;;;;;4.82;1.55;;;;;;;40.70;29.21;94692.19;10486812;28;20036;-76
2021/06/27 09:46:54;;;;;;;12.40;2.30;;;;;;;41.19;29.39;94688.28;10487022;28;20089;-76
2021/06/27 09:52:07;;;;;;;3.63;1.88;;;;;;;41.62;27.99;94683.41;10485331;28;20067;-76
2021/06/27 09:57:08;;;;;;;5.28;1.70;;;;;;;41.65;27.81;94673.97;10485147;28;20113;-76
2021/06/27 10:02:09;;;;;;;5.97;1.80;;;;;;;42.80;28.15;94675.78;10484340;28;20079;-76
2021/06/27 10:07:09;;;;;;;5.53;1.80;;;;;;;40.67;29.36;94668.56;10486820;28;20285;-76
2021/06/27 10:12:16;;;;;;;5.43;1.90;;;;;;;41.80;29.05;94665.59;10478252;28;20036;-76
2021/06/27 10:17:18;;;;;;;5.47;2.08;;;;;;;41.58;27.36;94667.94;10459018;28;20039;-76
2021/06/27 10:22:20;;;;;;;5.72;2.00;;;;;;;41.90;26.95;94669.16;10462316;28;20051;-76
2021/06/27 10:27:20;;;;;;;11.75;2.22;;;;;;;42.68;26.63;94666.31;10460958;28;20017;-77
2021/06/27 10:32:20;;;;;;;8.93;2.20;;;;;;;43.00;27.15;94660.16;10466790;28;20060;-76
2021/06/27 10:37:27;;;;;;;8.87;1.77;;;;;;;44.34;24.90;94647.63;10472193;28;20472;-76
2021/06/27 10:42:49;;;;;;;8.15;1.65;;;;;;;43.86;26.19;94658.13;10467397;28;20044;-76
2021/06/27 10:47:51;;;;;;;10.93;2.13;;;;;;;44.44;24.37;94646.19;10471655;28;20033;-76
2021/06/27 10:52:54;;;;;;;4.07;1.60;;;;;;;44.38;25.22;94643.28;10460572;28;20083;-76
2021/06/27 10:57:57;;;;;;;10.80;2.40;;;;;;;43.79;26.52;94633.06;10468931;28;20546;-76
2021/06/27 11:03:26;;;;;;;7.68;1.63;;;;;;;42.50;27.56;94641.03;10450977;28;20036;-76
2021/06/27 11:08:38;;;;;;;8.40;2.08;;;;;;;38.64;32.79;94642.31;10462689;28;20094;-77
2021/06/27 11:13:40;;;;;;;9.38;2.45;;;;;;;35.90;36.15;94634.25;10448417;28;20033;-76
2021/06/27 11:18:46;;;;;;;14.93;3.00;;;;;;;34.69;38.52;94622.00;10442107;28;20035;-76
2021/06/27 11:23:46;;;;;;;11.02;2.78;;;;;;;33.84;42.47;94628.91;10442197;28;20040;-76
2021/06/27 11:28:47;;;;;;;8.60;2.97;;;;;;;33.07;44.79;94636.16;10442276;28;20709;-76
2021/06/27 11:34:26;;;;;;;7.77;2.77;;;;;;;32.71;44.71;94634.72;10441699;28;20842;-76
2021/06/27 11:39:42;;;;;;;11.25;3.10;;;;;;;32.22;44.15;94628.56;10442313;28;20393;-76
2021/06/27 11:44:43;;;;;;;7.78;3.03;;;;;;;31.98;47.00;94628.44;10450243;28;20028;-76
2021/06/27 11:49:43;;;;;;;12.40;3.57;;;;;;;31.59;47.35;94616.53;10483012;28;20028;-79
2021/06/27 11:54:44;;;;;;;18.33;4.60;;;;;;;31.40;50.44;94622.66;10482201;28;20479;-78
2021/06/27 11:59:54;;;;;;;5.70;2.95;;;;;;;31.39;46.30;94619.09;10483644;28;20024;-79
2021/06/27 12:04:58;;;;;;;10.02;3.38;;;;;;;30.98;55.56;94603.19;10482974;28;20072;-79
2021/06/27 12:10:03;;;;;;;10.98;2.95;;;;;;;30.59;55.84;94605.03;10482923;28;20029;-78
2021/06/27 12:15:09;;;;;;;19.08;7.93;;;;;;;30.65;52.97;94605.38;10482809;28;20559;-78
2021/06/27 12:20:12;;;;;;;11.25;3.35;;;;;;;30.85;55.63;94605.63;10484299;28;20033;-78
2021/06/27 12:25:13;;;;;;;15.02;4.15;;;;;;;30.72;54.34;94616.44;10490667;28;20032;-78
2021/06/27 12:30:14;;;;;;;11.80;3.50;;;;;;;30.72;59.41;94615.66;10491572;28;20028;-79
2021/06/27 12:35:15;;;;;;;9.23;3.88;;;;;;;30.63;53.32;94613.31;10491996;28;20060;-79
2021/06/27 12:40:16;;;;;;;11.88;4.47;;;;;;;30.96;58.44;94603.56;10488500;28;20128;-78
2021/06/27 12:45:20;;;;;;;9.57;2.80;;;;;;;30.87;51.58;94599.66;10490249;28;20035;-79
2021/06/27 12:50:37;;;;;;;15.70;5.55;;;;;;;30.92;55.96;94597.25;10490578;28;20058;-78
2021/06/27 12:55:37;;;;;;;;;;;;;;;30.95;57.91;94612.28;10490594;28;20483;-79
2021/06/27 13:00:38;;;;;;;26.55;4.20;;;;;;;31.06;58.63;94607.47;10489950;28;19927;-79
2021/06/27 13:05:38;;;;;;;14.83;3.70;;;;;;;30.92;57.90;94610.34;10488954;28;20115;-79
2021/06/27 13:10:38;;;;;;;8.63;3.37;;;;;;;30.62;54.85;94614.53;10490134;28;20074;-79
2021/06/27 13:15:44;;;;;;;5.90;2.77;;;;;;;30.53;64.92;94614.19;10489215;28;20056;-79
2021/06/27 13:20:50;;;;;;;10.35;2.80;;;;;;;30.47;73.11;94619.38;10504036;28;20037;-79
2021/06/27 13:25:58;;;;;;;12.55;3.60;;;;;;;30.49;63.67;94611.41;10489181;28;20032;-79
2021/06/27 13:31:00;;;;;;;12.25;3.45;;;;;;;30.04;69.09;94611.22;10499883;28;20037;-80
2021/06/27 13:36:11;;;;;;;6.50;3.95;;;;;;;29.72;68.71;94628.72;10462595;28;20053;-80
2021/06/27 13:41:16;;;;;;;13.95;3.42;;;;;;;29.60;69.06;94624.41;10491357;28;20030;-79
2021/06/27 13:46:17;;;;;;;8.57;3.00;;;;;;;29.19;71.85;94630.34;10488625;28;20060;-80
2021/06/27 13:51:19;;;;;;;5.78;3.30;;;;;;;29.30;78.04;94622.88;10489644;28;20535;-79
2021/06/27 13:56:20;;;;;;;15.07;2.80;;;;;;;29.28;73.29;94625.25;10489488;28;20086;-79
2021/06/27 14:01:32;;;;;;;12.27;3.65;;;;;;;29.49;66.21;94633.50;10487789;28;20051;-79
2021/06/27 14:06:33;;;;;;;13.90;3.35;;;;;;;29.44;65.25;94635.91;10487698;28;20031;-79
2021/06/27 14:11:35;;;;;;;4.37;2.80;;;;;;;28.99;64.58;94639.84;10487724;28;20020;-79
2021/06/27 14:16:37;;;;;;;11.35;4.22;;;;;;;28.81;62.96;94628.75;10504502;28;20033;-79
2021/06/27 14:21:38;;;;;;;8.18;3.53;;;;;;;28.80;68.27;94629.97;10472431;28;20040;-80
2021/06/27 14:26:38;;;;;;;7.65;3.30;;;;;;;28.74;71.14;94628.75;10446124;28;20075;-80
2021/06/27 14:31:38;;;;;;;6.55;3.30;;;;;;;28.47;70.72;94629.09;10446213;28;20029;-79
2021/06/27 14:36:39;;;;;;;7.67;3.37;;;;;;;28.33;71.04;94625.47;10448575;28;20056;-80
2021/06/27 14:41:39;;;;;;;8.30;3.73;;;;;;;28.29;69.57;94623.50;10447590;28;20289;-80
2021/06/27 14:46:40;;;;;;;10.43;3.50;;;;;;;28.12;69.51;94621.50;10470427;28;20040;-79
2021/06/27 14:51:41;;;;;;;8.57;4.50;;;;;;;27.94;65.61;94624.94;10485649;28;20554;-79
2021/06/27 14:56:42;;;;;;;7.75;3.70;;;;;;;27.93;79.02;94622.56;10486147;28;20135;-80
2021/06/27 15:01:43;;;;;;;12.00;4.25;;;;;;;27.82;67.60;94627.25;10472786;28;20047;-80
2021/06/27 15:06:43;;;;;;;7.88;3.63;;;;;;;27.67;69.28;94634.66;10484317;28;20028;-75
2021/06/27 15:11:44;;;;;;;9.47;3.67;;;;;;;27.66;77.03;94633.88;10482462;28;20025;-77
2021/06/27 15:16:45;;;;;;;8.87;3.73;;;;;;;27.66;77.10;94633.06;10482601;28;20301;-76
2021/06/27 15:21:46;;;;;;;7.03;4.10;;;;;;;27.74;69.53;94635.50;10484437;28;20111;-76
2021/06/27 15:26:46;;;;;;;6.45;4.00;;;;;;;27.69;74.91;94633.09;10484549;28;20025;-78
2021/06/27 15:31:47;;;;;;;5.85;3.42;;;;;;;27.78;72.46;94629.97;10484260;28;20032;-76
2021/06/27 15:36:48;;;;;;;5.88;3.22;;;;;;;27.82;69.74;94624.50;10482369;28;20052;-76
2021/06/27 15:41:52;;;;;;;13.50;4.00;;;;;;;27.90;69.31;94637.16;10483952;28;20085;-76
2021/06/27 15:46:53;;;;;;;6.63;3.00;;;;;;;27.94;69.97;94638.75;10471206;28;20063;-77
2021/06/27 15:51:53;;;;;;;8.23;3.37;;;;;;;28.07;66.87;94641.97;10484046;28;20047;-77
2021/06/27 15:56:59;;;;;;;4.70;3.03;;;;;;;28.04;67.98;94642.75;10485258;28;20290;-77
2021/06/27 16:02:04;;;;;;;7.93;3.57;;;;;;;27.95;67.07;94639.53;10493173;28;20134;-77
2021/06/27 16:07:05;;;;;;;6.60;3.45;;;;;;;27.95;71.28;94648.63;10489248;28;20040;-77
2021/06/27 16:12:06;;;;;;;7.30;3.13;;;;;;;27.94;65.87;94657.31;10489424;28;20035;-77
2021/06/27 16:17:08;;;;;;;10.18;3.53;;;;;;;27.83;66.31;94665.53;10491499;28;20059;-77
2021/06/27 16:22:08;;;;;;;9.07;2.90;;;;;;;27.68;66.69;94656.34;10490852;28;20029;-77
2021/06/27 16:27:09;;;;;;;7.70;3.60;;;;;;;26.71;77.78;94659.16;10490468;28;20078;-77
2021/06/27 16:32:09;;;;;;;7.65;3.85;;;;;;;26.27;82.12;94679.91;10491399;28;20031;-77
2021/06/27 16:37:11;;;;;;;6.27;3.20;;;;;;;26.35;85.45;94691.81;10491146;28;20040;-77
2021/06/27 16:42:11;;;;;;;5.63;2.83;;;;;;;26.48;80.08;94705.34;10491378;28;20025;-77
2021/06/27 16:47:11;;;;;;;6.37;3.50;;;;;;;26.55;77.00;94708.94;10461030;28;20033;-77
2021/06/27 16:52:12;;;;;;;8.32;3.30;;;;;;;26.56;70.71;94712.50;10449242;28;20033;-77
2021/06/27 16:57:12;;;;;;;9.33;4.20;;;;;;;26.54;72.69;94720.34;10449332;28;20036;-77
2021/06/27 17:02:13;;;;;;;6.38;3.35;;;;;;;26.58;75.34;94716.47;10449357;28;20120;-77
2021/06/27 17:07:13;;;;;;;7.43;3.50;;;;;;;26.58;71.74;94723.94;10448044;28;20032;-77
2021/06/27 17:12:13;;;;;;;7.90;3.70;;;;;;;26.53;71.72;94729.81;10449467;28;20271;-77
2021/06/27 17:17:14;;;;;;;7.50;4.60;;;;;;;26.44;70.95;94738.34;10471549;28;20340;-76
2021/06/27 17:22:15;;;;;;;19.58;5.40;;;;;;;26.43;74.77;94743.06;10489114;28;20033;-75
2021/06/27 17:27:16;;;;;;;7.85;4.75;;;;;;;26.27;72.12;94745.22;10487976;28;20029;-75
2021/06/27 17:32:16;;;;;;;7.00;4.60;;;;;;;26.13;72.54;94747.81;10461739;28;20029;-76
2021/06/27 17:37:16;;;;;;;7.37;3.93;;;;;;;25.91;76.10;94750.22;10447063;28;20080;-76
2021/06/27 17:42:17;;;;;;;11.43;4.37;;;;;;;25.95;76.75;94753.81;10444633;28;20659;-76
2021/06/27 17:47:17;;;;;;;14.57;5.90;;;;;;;25.94;83.70;94760.50;10445909;28;20037;-75
2021/06/27 17:52:18;;;;;;;7.63;3.63;;;;;;;25.79;86.12;94762.25;10445902;28;20481;-75
2021/06/27 17:57:18;;;;;;;5.05;3.83;;;;;;;25.61;86.71;94770.25;10449179;28;20032;-75
2021/06/27 18:02:19;;;;;;;6.07;3.80;;;;;;;25.35;86.85;94771.78;10480098;28;20032;-76
2021/06/27 18:07:20;;;;;;;9.55;4.05;;;;;;;25.36;88.72;94775.34;10467400;28;20412;-76
2021/06/27 18:12:20;;;;;;;11.77;3.80;;;;;;;25.27;89.01;94783.00;10466608;28;20012;-75
2021/06/27 18:17:21;;;;;;;8.57;4.20;;;;;;;25.27;86.91;94792.06;10470248;28;20271;-78
2021/06/27 18:22:21;;;;;;;6.97;4.22;;;;;;;25.29;86.37;94794.44;10469870;28;20028;-77
2021/06/27 18:27:22;;;;;;;9.07;3.77;;;;;;;25.19;85.84;94804.88;10469917;28;20104;-75
2021/06/27 18:32:22;;;;;;;10.73;3.53;;;;;;;25.10;85.96;94807.06;10468673;28;20039;-74
2021/06/27 18:37:25;;;;;;;7.40;4.17;;;;;;;25.04;89.33;94814.81;10460174;28;20274;-76
2021/06/27 18:42:27;;;;;;;7.65;4.70;;;;;;;24.87;92.52;94826.28;10469834;28;20031;-74
2021/06/27 18:47:28;;;;;;;9.18;4.82;;;;;;;24.78;97.24;94840.22;10464530;28;20029;-76
2021/06/27 18:52:32;;;;;;;10.33;4.50;;;;;;;24.67;98.71;94850.22;10472908;28;20399;-75
2021/06/27 18:57:33;;;;;;;9.60;4.35;;;;;;;24.59;100.00;94857.50;10465149;28;20086;-75
2021/06/27 19:02:34;;;;;;;6.55;4.50;;;;;;;24.46;99.33;94856.03;10455011;28;20025;-74
2021/06/27 19:07:34;;;;;;;7.80;3.80;;;;;;;24.37;98.40;94854.28;10484276;28;20039;-74
2021/06/27 19:12:35;;;;;;;8.98;4.75;;;;;;;24.36;100.00;94846.41;10470510;28;20274;-76
2021/06/27 19:17:36;;;;;;;7.15;4.65;;;;;;;24.21;100.00;94845.28;10426548;28;20112;-76
2021/06/27 19:22:37;;;;;;;10.07;4.65;;;;;;;24.22;100.00;94849.63;10432819;28;20029;-77
2021/06/27 19:27:39;;;;;;;8.85;5.10;;;;;;;24.13;100.00;94852.56;10450994;28;20067;-78
2021/06/27 19:32:40;;;;;;;11.40;5.15;;;;;;;24.05;100.00;94853.56;10450963;28;20545;-77
2021/06/27 19:37:41;;;;;;;11.25;5.13;;;;;;;23.97;100.00;94860.03;10432607;28;20032;-78
2021/06/27 19:42:43;;;;;;;12.23;5.47;;;;;;;23.73;100.00;94859.03;10424689;28;20503;-76
2021/06/27 19:47:43;;;;;;;11.02;5.95;;;;;;;23.53;100.00;94863.66;10410239;28;20105;-76
2021/06/27 19:52:43;;;;;;;8.23;5.37;;;;;;;23.33;100.00;94863.56;10406709;28;20119;-76
2021/06/27 19:57:44;;;;;;;6.72;4.60;;;;;;;23.04;100.00;94857.25;10408768;28;20398;-77
2021/06/27 20:02:46;;;;;;;9.32;5.38;;;;;;;22.84;100.00;94850.84;10408998;28;20040;-77
2021/06/27 20:07:46;;;;;;;9.18;4.40;;;;;;;22.87;100.00;94854.81;10426905;28;20024;-77
2021/06/27 20:12:47;;;;;;;7.30;4.33;;;;;;;22.82;100.00;94855.88;10446050;28;20027;-77
2021/06/27 20:17:47;;;;;;;7.67;4.27;;;;;;;22.77;100.00;94847.09;10448299;28;20120;-77
2021/06/27 20:22:47;;;;;;;5.43;3.40;;;;;;;22.80;100.00;94851.88;10446616;28;20291;-77
2021/06/27 20:27:48;;;;;;;9.30;4.40;;;;;;;22.81;100.00;94854.28;10447196;28;20285;-76
2021/06/27 20:32:48;;;;;;;5.80;3.97;;;;;;;22.72;100.00;94848.16;10447310;28;20116;-76
2021/06/27 20:37:49;;;;;;;10.53;4.27;;;;;;;22.66;100.00;94852.28;10447570;28;20649;-77
2021/06/27 20:42:50;;;;;;;13.40;4.25;;;;;;;22.56;100.00;94852.78;10467422;28;20290;-78
2021/06/27 20:47:51;;;;;;;4.72;3.50;;;;;;;22.35;100.00;94848.25;10436579;28;20025;-77
2021/06/27 20:52:52;;;;;;;6.60;4.82;;;;;;;22.08;100.00;94855.25;10415545;28;20110;-79
2021/06/27 20:57:52;;;;;;;8.65;4.82;;;;;;;22.05;100.00;94869.59;10415308;28;20122;-77
2021/06/27 21:02:53;;;;;;;17.27;6.18;;;;;;;22.06;100.00;94863.81;10415465;28;20025;-77
2021/06/27 21:07:54;;;;;;;11.35;4.72;;;;;;;21.95;100.00;94868.13;10437069;28;20035;-77
2021/06/27 21:12:54;;;;;;;8.43;4.40;;;;;;;21.82;100.00;94862.66;10437525;28;20027;-77
2021/06/27 21:17:54;;;;;;;7.50;4.57;;;;;;;21.78;100.00;94867.22;10433930;28;20028;-77
2021/06/27 21:22:55;;;;;;;7.67;4.43;;;;;;;21.72;100.00;94876.78;10432025;28;20044;-78
2021/06/27 21:27:56;;;;;;;11.77;4.85;;;;;;;21.41;100.00;94882.75;10432337;28;20326;-77
2021/06/27 21:32:56;;;;;;;8.00;5.45;;;;;;;21.38;100.00;94880.69;10418106;28;20053;-78
2021/06/27 21:37:56;;;;;;;11.03;5.57;;;;;;;21.05;100.00;94882.31;10409731;28;20087;-77
2021/06/27 21:42:57;;;;;;;12.50;5.80;;;;;;;20.93;100.00;94894.00;10408019;28;20036;-78
2021/06/27 21:47:57;;;;;;;7.10;5.25;;;;;;;20.89;100.00;94895.00;10411610;28;20025;-78
2021/06/27 21:52:59;;;;;;;14.25;5.43;;;;;;;20.91;100.00;94899.00;10411500;28;20031;-78
2021/06/27 21:58:01;;;;;;;9.10;5.20;;;;;;;20.73;100.00;94892.88;10432059;28;20488;-77
2021/06/27 22:03:01;;;;;;;10.07;5.28;;;;;;;20.73;100.00;94894.81;10443742;28;20013;-77
2021/06/27 22:08:03;;;;;;;14.70;5.50;;;;;;;20.71;100.00;94897.06;10429781;28;20035;-77
2021/06/27 22:13:03;;;;;;;14.30;5.88;;;;;;;20.55;100.00;94897.66;10430940;28;20024;-77
2021/06/27 22:18:04;;;;;;;17.52;6.45;;;;;;;20.53;100.00;94893.69;10431352;28;20377;-77
2021/06/27 22:23:05;;;;;;;8.63;5.70;;;;;;;20.44;100.00;94885.53;10425246;28;20021;-77
2021/06/27 22:28:05;;;;;;;13.63;5.65;;;;;;;20.32;100.00;94900.72;10429619;28;20024;-77
2021/06/27 22:33:06;;;;;;;9.10;6.00;;;;;;;20.35;100.00;94903.91;10413166;28;20041;-77
2021/06/27 22:38:06;;;;;;;9.77;5.87;;;;;;;20.26;100.00;94901.22;10411749;28;20036;-78
2021/06/27 22:43:07;;;;;;;12.95;5.68;;;;;;;20.19;100.00;94903.69;10413098;28;20295;-78
2021/06/27 22:48:08;;;;;;;12.97;6.53;;;;;;;20.24;100.00;94904.28;10412826;28;20053;-78
2021/06/27 22:53:08;;;;;;;8.35;6.00;;;;;;;20.22;100.00;94903.84;10423775;28;20348;-78
2021/06/27 22:58:08;;;;;;;12.03;5.80;;;;;;;20.14;100.00;94916.38;10453610;28;20029;-78
2021/06/27 23:03:09;;;;;;;10.63;6.90;;;;;;;20.02;100.00;94918.22;10453611;28;20031;-78
2021/06/27 23:08:09;;;;;;;10.55;5.82;;;;;;;19.93;100.00;94924.53;10451185;28;20029;-77